Time;durP1;ratioP1;P1;durP2;ratioP2;P2;SDS_P1;SDS_P2;PMS_P1;PMS_P2;Temp;Humidity;BMP_temperature;BMP_pressure;BME280_temperature;BME280_humidity;BME280_pressure;Samples;Min_cycle;Max_cycle;Signal;HPM_P1;HPM_P2
2023/01/24 00:05:58;;;;;;;33.43;15.90;;;;;;;5.04;100.00;100698.59;5111830;28;20656;-58
2023/01/24 00:12:02;;;;;;;31.17;16.57;;;;;;;5.02;100.00;100708.00;5110119;28;20321;-55
2023/01/24 00:14:50;;;;;;;32.77;14.50;;;;;;;5.03;100.00;100719.16;5111764;28;20195;-55
2023/01/24 00:18:08;;;;;;;;;;;;;;;;;;;;;
2023/01/24 00:21:16;;;;;;;30.77;15.23;;;;;;;4.92;100.00;100713.88;5098306;28;20215;-55
2023/01/24 00:24:05;;;;;;;28.87;14.67;;;;;;;4.89;100.00;100718.97;5110181;28;20191;-54
2023/01/24 00:27:07;;;;;;;32.80;15.17;;;;;;;4.91;100.00;100713.84;5111931;28;20190;-54
2023/01/24 00:30:06;;;;;;;32.90;16.00;;;;;;;4.88;100.00;100716.38;5109100;28;20198;-58
2023/01/24 00:33:07;;;;;;;32.80;16.23;;;;;;;4.83;100.00;100711.19;5112699;28;20203;-54
2023/01/24 00:36:04;;;;;;;33.57;16.97;;;;;;;4.88;100.00;100716.38;5108035;28;20211;-54
2023/01/24 00:39:04;;;;;;;32.53;16.13;;;;;;;4.95;100.00;100718.22;5112586;28;20222;-54
2023/01/24 00:41:37;;;;;;;28.40;14.47;;;;;;;5.00;100.00;100717.41;5112381;28;20202;-54
2023/01/24 00:47:41;;;;;;;32.40;15.67;;;;;;;5.03;100.00;100716.59;5110676;28;20463;-54
2023/01/24 00:50:41;;;;;;;31.03;15.80;;;;;;;5.07;100.00;100713.22;5111433;28;20198;-55
2023/01/24 00:53:47;;;;;;;35.80;14.20;;;;;;;5.07;100.00;100718.38;5111316;28;20214;-55
2023/01/24 00:56:49;;;;;;;28.67;14.73;;;;;;;4.99;100.00;100718.25;5110733;28;20768;-59
2023/01/24 01:02:53;;;;;;;28.50;14.93;;;;;;;4.94;100.00;100719.06;5110682;28;20654;-55
2023/01/24 01:06:04;;;;;;;33.47;15.87;;;;;;;4.89;100.00;100715.53;5111439;28;20195;-53
2023/01/24 01:12:27;;;;;;;35.63;15.43;;;;;;;4.87;100.00;100715.50;5110534;28;20194;-54
2023/01/24 01:15:30;;;;;;;33.67;16.53;;;;;;;4.89;100.00;100729.25;5111905;28;20195;-54
2023/01/24 01:18:17;;;;;;;28.13;14.43;;;;;;;4.90;100.00;100719.84;5111846;28;20230;-54
2023/01/24 01:26:49;;;;;;;35.30;16.63;;;;;;;4.76;100.00;100717.06;5109035;28;20198;-58
2023/01/24 01:29:47;;;;;;;31.47;14.97;;;;;;;4.70;100.00;100722.16;5110691;28;20205;-59
2023/01/24 01:32:48;;;;;;;30.33;14.60;;;;;;;4.73;100.00;100722.19;5111593;28;20191;-54
2023/01/24 01:35:38;;;;;;;36.73;15.77;;;;;;;4.75;100.00;100718.78;5111505;28;20199;-58
2023/01/24 01:38:47;;;;;;;34.80;16.07;;;;;;;4.78;100.00;100724.81;5110423;28;20214;-58
2023/01/24 01:41:45;;;;;;;30.57;14.07;;;;;;;4.87;100.00;100714.66;5111204;28;20682;-59
2023/01/24 01:44:52;;;;;;;32.83;16.43;;;;;;;4.90;100.00;100718.13;5111330;28;20281;-59
2023/01/24 01:48:05;;;;;;;28.40;14.43;;;;;;;4.84;100.00;100719.78;5110911;28;20208;-59
2023/01/24 01:51:12;;;;;;;37.00;16.73;;;;;;;4.79;100.00;100714.56;5110597;28;20198;-59
2023/01/24 01:53:56;;;;;;;28.87;14.57;;;;;;;4.81;100.00;100712.88;5108946;28;20211;-55
2023/01/24 02:06:38;;;;;;;;;;;;;;;;;;;;;
2023/01/24 02:09:57;;;;;;;;;;;;;;;;;;;;;
2023/01/24 02:12:51;;;;;;;31.90;13.17;;;;;;;4.55;100.00;100721.91;5110632;28;20201;-54
2023/01/24 02:19:02;;;;;;;31.73;14.47;;;;;;;4.57;100.00;100728.81;5110817;28;20233;-58
2023/01/24 02:21:49;;;;;;;28.63;12.97;;;;;;;4.54;100.00;100731.34;5110463;28;20275;-58
2023/01/24 02:28:26;;;;;;;36.60;15.90;;;;;;;4.52;100.00;100735.59;5109640;28;20658;-59
2023/01/24 02:34:40;;;;;;;27.93;14.60;;;;;;;4.62;100.00;100744.31;5106802;28;20700;-60
2023/01/24 02:37:29;;;;;;;29.40;14.07;;;;;;;4.45;100.00;100717.47;5108691;28;20191;-60
2023/01/24 02:40:23;;;;;;;31.03;14.23;;;;;;;4.52;100.00;100735.59;5110143;28;20206;-59
2023/01/24 02:58:41;;;;;;;26.10;13.00;;;;;;;4.35;100.00;100735.34;5069248;28;20677;-60
2023/01/24 03:07:51;;;;;;;29.87;14.37;;;;;;;4.29;100.00;100735.22;5069764;28;20664;-60
2023/01/24 03:35:31;;;;;;;23.70;11.03;;;;;;;4.25;100.00;100730.91;5073352;28;20643;-54
2023/01/24 03:41:43;;;;;;;;;;;;;;;;;;;;;
2023/01/24 03:48:14;;;;;;;;;;;;;;;;;;;;;
2023/01/24 03:54:14;;;;;;;30.27;14.13;;;;;;;4.28;100.00;100732.66;5072838;28;20276;-58
2023/01/24 03:59:53;;;;;;;23.43;13.53;;;;;;;4.04;100.00;100730.53;5093207;28;20659;-59
2023/01/24 04:02:24;;;;;;;23.73;12.77;;;;;;;4.03;100.00;100728.81;5092705;28;20683;-59
2023/01/24 04:08:09;;;;;;;25.03;13.20;;;;;;;4.08;100.00;100734.88;5092832;28;20194;-58
2023/01/24 04:11:00;;;;;;;22.03;11.80;;;;;;;4.02;100.00;100737.34;5089026;28;20201;-59
2023/01/24 04:13:58;;;;;;;24.03;13.40;;;;;;;3.95;100.00;100730.41;5092781;28;20642;-59
2023/01/24 04:16:52;;;;;;;20.60;12.53;;;;;;;3.92;100.00;100725.19;5092640;28;20207;-59
2023/01/24 04:19:22;;;;;;;30.60;14.10;;;;;;;3.96;100.00;100726.97;5089097;28;20313;-59
2023/01/24 04:21:57;;;;;;;27.17;15.37;;;;;;;4.00;100.00;100726.19;5092453;28;20202;-59
2023/01/24 04:24:29;;;;;;;31.27;14.77;;;;;;;4.02;100.00;100724.50;5092244;28;20688;-59
2023/01/24 04:27:45;;;;;;;26.60;13.70;;;;;;;3.96;100.00;100721.81;5090655;28;20655;-54
2023/01/24 04:30:15;;;;;;;25.63;13.73;;;;;;;3.94;100.00;100732.09;5091408;28;20203;-55
2023/01/24 04:32:45;;;;;;;29.80;13.90;;;;;;;3.95;100.00;100723.53;5092132;28;20679;-55
2023/01/24 04:35:31;;;;;;;25.27;13.13;;;;;;;3.94;100.00;100736.38;5091450;28;20191;-55
2023/01/24 04:38:16;;;;;;;27.80;12.93;;;;;;;3.96;100.00;100739.81;5091209;28;20745;-54
2023/01/24 04:40:52;;;;;;;21.97;12.60;;;;;;;3.83;100.00;100736.19;5091580;28;20300;-54
2023/01/24 04:43:41;;;;;;;27.50;11.00;;;;;;;3.86;100.00;100737.91;5091658;28;20624;-55
2023/01/24 04:46:15;;;;;;;29.60;13.33;;;;;;;3.75;100.00;100744.56;5092054;28;20202;-55
2023/01/24 04:48:48;;;;;;;23.93;13.17;;;;;;;3.72;100.00;100740.25;5090583;28;20605;-55
2023/01/24 04:51:23;;;;;;;23.50;13.37;;;;;;;3.85;100.00;100742.19;5090433;28;20199;-55
2023/01/24 04:54:05;;;;;;;25.17;11.80;;;;;;;3.80;100.00;100738.69;5091804;28;20201;-55
2023/01/24 04:57:05;;;;;;;23.80;12.83;;;;;;;3.83;100.00;100743.03;5091307;28;20266;-55
2023/01/24 04:59:52;;;;;;;25.53;13.37;;;;;;;3.89;100.00;100741.41;5093988;28;20221;-59
2023/01/24 05:02:45;;;;;;;19.03;11.17;;;;;;;3.75;100.00;100737.72;5112033;28;20225;-58
2023/01/24 05:05:42;;;;;;;21.10;12.03;;;;;;;3.80;100.00;100753.22;5111850;28;20198;-59
2023/01/24 05:08:34;;;;;;;26.43;13.30;;;;;;;3.82;100.00;100749.84;5111691;28;20191;-59
2023/01/24 05:20:38;;;;;;;22.17;12.50;;;;;;;3.75;100.00;100763.41;5110829;28;20742;-59
2023/01/24 05:23:40;;;;;;;26.37;13.03;;;;;;;3.74;100.00;100758.22;5111198;28;20277;-60
2023/01/24 05:26:30;;;;;;;21.63;12.43;;;;;;;3.66;100.00;100763.22;5111136;28;20198;-58
2023/01/24 05:29:34;;;;;;;21.20;12.37;;;;;;;3.70;100.00;100761.59;5111041;28;20191;-57
2023/01/24 05:32:20;;;;;;;25.50;13.43;;;;;;;3.70;100.00;100759.91;5111474;28;20630;-58
2023/01/24 05:38:14;;;;;;;20.50;12.30;;;;;;;3.68;100.00;100753.00;5101586;28;20194;-54
2023/01/24 05:41:00;;;;;;;20.47;11.63;;;;;;;3.64;100.00;100767.47;5110068;28;20195;-55
2023/01/24 05:47:30;;;;;;;22.93;12.17;;;;;;;3.62;100.00;100759.72;5106895;28;20207;-58
2023/01/24 05:50:30;;;;;;;21.67;11.30;;;;;;;3.55;100.00;100768.16;5108905;28;20579;-54
2023/01/24 05:53:42;;;;;;;18.47;11.40;;;;;;;3.65;100.00;100777.78;5108295;28;20206;-55
2023/01/24 05:56:33;;;;;;;21.97;12.53;;;;;;;3.67;100.00;100776.94;5110670;28;20232;-59
2023/01/24 05:59:42;;;;;;;20.07;12.20;;;;;;;3.63;100.00;100773.44;5110904;28;20262;-59
2023/01/24 06:02:58;;;;;;;;;;;;;;;;;;;;;
2023/01/24 06:05:56;;;;;;;24.70;13.93;;;;;;;3.67;100.00;100788.06;5105180;28;20217;-58
2023/01/24 06:08:51;;;;;;;26.70;14.97;;;;;;;3.62;100.00;100787.97;5110359;28;20275;-59
2023/01/24 06:11:42;;;;;;;26.70;14.47;;;;;;;3.61;100.00;100793.09;5110836;28;20611;-59
2023/01/24 06:14:42;;;;;;;22.90;13.63;;;;;;;3.64;100.00;100803.41;5110835;28;20631;-55
2023/01/24 06:17:24;;;;;;;28.67;14.90;;;;;;;3.69;100.00;100803.50;5110590;28;20191;-54
2023/01/24 06:20:16;;;;;;;24.60;12.40;;;;;;;3.60;100.00;100797.38;5110251;28;20218;-55
2023/01/24 06:26:42;;;;;;;25.87;13.30;;;;;;;3.68;100.00;100819.75;5108968;28;20590;-55
2023/01/24 06:32:17;;;;;;;19.50;10.90;;;;;;;3.82;100.00;100802.91;5100777;28;20662;-55
2023/01/24 06:35:11;;;;;;;21.37;12.23;;;;;;;3.72;100.00;100812.16;5107031;28;20226;-54
2023/01/24 06:37:57;;;;;;;19.17;11.33;;;;;;;3.43;100.00;100779.88;5101718;28;20246;-56
2023/01/24 06:40:35;;;;;;;22.73;13.80;;;;;;;3.65;100.00;100829.13;5101012;28;20315;-57
2023/01/24 06:43:12;;;;;;;18.63;11.20;;;;;;;3.54;100.00;100828.03;5095338;28;20709;-54
2023/01/24 06:45:41;;;;;;;21.13;11.60;;;;;;;3.48;100.00;100832.19;5096525;28;20305;-54
2023/01/24 06:48:11;;;;;;;16.40;9.90;;;;;;;3.50;100.00;100823.66;5094244;28;20234;-60
2023/01/24 06:50:42;;;;;;;15.97;9.87;;;;;;;3.46;100.00;100826.16;5088983;28;20579;-58
2023/01/24 06:53:14;;;;;;;19.27;10.87;;;;;;;3.45;100.00;100832.13;5088085;28;20219;-59
2023/01/24 06:55:59;;;;;;;14.83;9.80;;;;;;;3.48;100.00;100832.19;5089283;28;20283;-60
2023/01/24 06:58:41;;;;;;;19.97;11.17;;;;;;;3.51;100.00;100839.94;5087886;28;20307;-59
2023/01/24 07:01:26;;;;;;;19.17;11.87;;;;;;;3.52;100.00;100837.41;5087380;28;20229;-54
2023/01/24 07:04:04;;;;;;;27.17;13.77;;;;;;;3.55;100.00;100834.91;5088784;28;20710;-55
2023/01/24 07:06:52;;;;;;;23.50;13.13;;;;;;;3.59;100.00;100840.97;5088624;28;20667;-54
2023/01/24 07:09:26;;;;;;;18.53;10.80;;;;;;;3.53;100.00;100841.72;5086867;28;20923;-55
2023/01/24 07:12:00;;;;;;;22.17;11.23;;;;;;;3.49;100.00;100845.06;5087498;28;20219;-55
2023/01/24 07:14:43;;;;;;;22.53;12.50;;;;;;;3.48;100.00;100843.31;5089064;28;20218;-55
2023/01/24 07:17:26;;;;;;;17.30;10.80;;;;;;;3.50;100.00;100851.91;5093807;28;20608;-54
2023/01/24 07:20:05;;;;;;;16.77;10.77;;;;;;;3.52;100.00;100850.25;5109262;28;20226;-53
2023/01/24 07:23:05;;;;;;;20.67;11.50;;;;;;;3.49;100.00;100855.34;5109011;28;20313;-54
2023/01/24 07:26:09;;;;;;;19.37;11.63;;;;;;;3.52;100.00;100860.50;5108588;28;20198;-54
2023/01/24 07:32:40;;;;;;;23.43;12.23;;;;;;;3.60;100.00;100865.81;5109874;28;20195;-59
2023/01/24 07:47:30;;;;;;;17.60;10.40;;;;;;;3.64;100.00;100867.59;5104839;28;20612;-54
2023/01/24 07:50:14;;;;;;;17.47;10.67;;;;;;;3.75;100.00;100868.69;5109685;28;20190;-54
2023/01/24 07:53:03;;;;;;;16.03;9.67;;;;;;;3.81;100.00;100873.09;5107580;28;20207;-54
2023/01/24 07:55:43;;;;;;;12.90;8.70;;;;;;;3.83;100.00;100877.44;5109506;28;20669;-54
2023/01/24 07:58:40;;;;;;;;;;;;;;;;;;;;;
2023/01/24 08:04:47;;;;;;;16.23;8.30;;;;;;;3.80;100.00;100897.03;5069022;28;20290;-55
2023/01/24 08:07:39;;;;;;;15.43;8.60;;;;;;;3.73;100.00;100887.47;5072704;28;20230;-54
2023/01/24 08:10:18;;;;;;;15.23;8.17;;;;;;;3.77;100.00;100882.44;5072121;28;20192;-54
2023/01/24 08:13:02;;;;;;;18.40;7.57;;;;;;;3.83;100.00;100886.84;5086189;28;20249;-54
2023/01/24 08:15:44;;;;;;;15.77;7.97;;;;;;;3.69;100.00;100899.38;5072226;28;20664;-54
2023/01/24 08:18:34;;;;;;;10.53;6.67;;;;;;;3.62;100.00;100893.25;5072294;28;20735;-57
2023/01/24 08:24:25;;;;;;;15.17;8.63;;;;;;;3.67;100.00;100897.63;5071516;28;20210;-59
2023/01/24 08:27:20;;;;;;;15.00;8.77;;;;;;;3.74;100.00;100896.91;5070900;28;20212;-58
2023/01/24 08:30:15;;;;;;;14.33;8.70;;;;;;;3.74;100.00;100894.31;5072137;28;20633;-58
2023/01/24 08:36:37;;;;;;;13.37;7.93;;;;;;;3.71;100.00;100891.72;5072445;28;20200;-59
2023/01/24 08:42:45;;;;;;;19.17;7.93;;;;;;;3.80;100.00;100891.91;5071494;28;20206;-54
2023/01/24 08:45:17;;;;;;;13.40;6.87;;;;;;;3.77;100.00;100894.41;5071417;28;20196;-54
2023/01/24 08:48:14;;;;;;;11.87;6.83;;;;;;;3.68;100.00;100902.78;5062784;28;20319;-55
2023/01/24 08:50:53;;;;;;;10.73;7.53;;;;;;;3.67;100.00;100907.88;5049843;28;20232;-54
2023/01/24 08:53:27;;;;;;;19.50;10.80;;;;;;;3.48;100.00;100863.00;5050609;28;20231;-54
2023/01/24 08:56:03;;;;;;;17.07;10.23;;;;;;;3.82;100.00;100901.38;5053740;28;20255;-54
2023/01/24 08:58:46;;;;;;;17.27;9.77;;;;;;;3.88;100.00;100908.31;5091173;28;20230;-54
2023/01/24 09:01:18;;;;;;;19.23;9.80;;;;;;;3.94;100.00;100905.91;5090081;28;20221;-55
2023/01/24 09:03:50;;;;;;;14.73;7.50;;;;;;;3.94;100.00;100917.03;5090185;28;20634;-59
2023/01/24 09:06:34;;;;;;;16.20;9.20;;;;;;;3.91;100.00;100901.56;5090398;28;20725;-58
2023/01/24 09:09:44;;;;;;;16.30;8.57;;;;;;;3.86;100.00;100898.03;5100672;28;20222;-58
2023/01/24 09:12:16;;;;;;;22.17;10.00;;;;;;;3.90;100.00;100894.69;5110690;28;20393;-59
2023/01/24 09:14:55;;;;;;;12.17;7.40;;;;;;;3.91;100.00;100898.13;5111589;28;20297;-59
2023/01/24 09:17:39;;;;;;;17.63;10.23;;;;;;;3.96;100.00;100902.50;5111822;28;20407;-58
2023/01/24 09:20:30;;;;;;;18.70;10.13;;;;;;;4.07;100.00;100894.13;5111340;28;20218;-59
2023/01/24 09:26:15;;;;;;;16.73;9.67;;;;;;;4.00;100.00;100896.59;5111311;28;20932;-54
2023/01/24 09:28:46;;;;;;;14.57;8.93;;;;;;;3.98;100.00;100894.84;5111406;28;20199;-54
2023/01/24 09:31:33;;;;;;;23.93;10.87;;;;;;;4.02;100.00;100894.06;5111352;28;20237;-55
2023/01/24 09:34:15;;;;;;;17.27;11.27;;;;;;;4.22;100.00;100882.47;5111246;28;20590;-55
2023/01/24 09:36:58;;;;;;;10.93;8.23;;;;;;;4.26;100.00;100884.25;5110869;28;20199;-54
2023/01/24 09:39:55;;;;;;;13.27;6.97;;;;;;;4.21;100.00;100885.00;5111199;28;20226;-54
2023/01/24 09:42:50;;;;;;;15.93;7.77;;;;;;;4.25;100.00;100882.53;5111084;28;20669;-55
2023/01/24 09:45:38;;;;;;;12.70;7.63;;;;;;;4.26;100.00;100875.69;5111200;28;20199;-54
2023/01/24 09:51:15;;;;;;;8.70;6.10;;;;;;;4.25;100.00;100885.09;5099980;28;20198;-59
2023/01/24 09:54:07;;;;;;;12.13;7.10;;;;;;;4.26;100.00;100879.13;5100820;28;20670;-59
2023/01/24 09:56:50;;;;;;;9.87;7.40;;;;;;;4.37;100.00;100876.75;5106037;28;20233;-59
2023/01/24 09:59:22;;;;;;;10.73;7.00;;;;;;;4.42;100.00;100879.38;5110978;28;20299;-59
2023/01/24 10:01:50;;;;;;;13.53;8.67;;;;;;;4.42;100.00;100882.81;5111077;28;20195;-59
2023/01/24 10:04:21;;;;;;;9.60;7.47;;;;;;;4.49;100.00;100886.38;5111223;28;20262;-59
2023/01/24 10:07:12;;;;;;;11.03;7.67;;;;;;;4.50;100.00;100883.84;5110960;28;20199;-58
2023/01/24 10:09:52;;;;;;;13.13;7.97;;;;;;;4.41;100.00;100880.22;5110461;28;20194;-59
2023/01/24 10:12:34;;;;;;;12.70;8.03;;;;;;;4.46;100.00;100881.19;5110866;28;20198;-59
2023/01/24 10:15:17;;;;;;;20.60;11.47;;;;;;;4.37;100.00;100866.47;5110899;28;20194;-59
2023/01/24 10:17:58;;;;;;;11.23;7.97;;;;;;;4.35;100.00;100863.84;5110650;28;20230;-59
2023/01/24 10:20:42;;;;;;;12.87;7.37;;;;;;;4.43;100.00;100866.56;5110472;28;20219;-58
2023/01/24 10:23:13;;;;;;;10.57;8.53;;;;;;;4.58;100.00;100858.25;5110744;28;20746;-59
2023/01/24 10:25:51;;;;;;;13.97;8.60;;;;;;;4.62;100.00;100860.03;5110179;28;20232;-59
2023/01/24 10:28:23;;;;;;;11.90;6.67;;;;;;;4.68;100.00;100852.41;5110500;28;20663;-59
2023/01/24 10:30:59;;;;;;;16.03;8.70;;;;;;;4.61;100.00;100837.75;5110534;28;20200;-59
2023/01/24 10:33:31;;;;;;;8.70;6.70;;;;;;;4.74;100.00;100840.50;5110439;28;20190;-58
2023/01/24 10:36:04;;;;;;;14.17;8.23;;;;;;;4.80;100.00;100851.75;5110667;28;20244;-58
2023/01/24 10:38:31;;;;;;;14.20;8.50;;;;;;;4.72;100.00;100839.63;5110409;28;20187;-59
2023/01/24 10:41:10;;;;;;;14.13;9.17;;;;;;;4.78;100.00;100838.00;5110451;28;20776;-59
2023/01/24 10:43:39;;;;;;;12.60;8.37;;;;;;;4.84;100.00;100841.53;5110253;28;20194;-58
2023/01/24 10:46:27;;;;;;;13.27;8.50;;;;;;;4.81;100.00;100831.19;5110506;28;20596;-58
2023/01/24 10:48:56;;;;;;;11.67;8.43;;;;;;;4.86;100.00;100832.13;5110281;28;20194;-58
2023/01/24 10:54:53;;;;;;;14.67;7.87;;;;;;;4.94;100.00;100827.97;5109002;28;20502;-59
2023/01/24 10:57:59;;;;;;;9.87;5.40;;;;;;;4.82;100.00;100822.63;5109481;28;20789;-58
2023/01/24 11:00:43;;;;;;;7.77;4.47;;;;;;;4.87;100.00;100826.13;5106895;28;20214;-59
2023/01/24 11:04:04;;;;;;;7.97;5.97;;;;;;;4.71;100.00;100796.75;5109154;28;20190;-60
2023/01/24 11:07:10;;;;;;;10.37;6.40;;;;;;;4.99;100.00;100817.72;5109399;28;20201;-60
2023/01/24 11:13:52;;;;;;;7.37;5.27;;;;;;;4.88;100.00;100815.00;5107680;28;20259;-59
2023/01/24 11:16:49;;;;;;;7.93;6.10;;;;;;;4.88;100.00;100817.56;5110455;28;20199;-59
2023/01/24 11:19:49;;;;;;;22.13;11.17;;;;;;;4.92;100.00;100818.50;5106480;28;20206;-54
2023/01/24 11:22:33;;;;;;;18.60;9.83;;;;;;;5.00;100.00;100815.19;5097995;28;20283;-55
2023/01/24 11:25:24;;;;;;;10.67;7.07;;;;;;;5.13;100.00;100810.22;5098974;28;20281;-55
2023/01/24 11:28:07;;;;;;;32.90;14.53;;;;;;;5.19;100.00;100789.72;5091786;28;20202;-58
2023/01/24 11:31:03;;;;;;;12.10;8.73;;;;;;;5.33;100.00;100801.91;5096291;28;20276;-58
2023/01/24 11:34:06;;;;;;;25.80;13.23;;;;;;;5.30;100.00;100796.75;5093781;28;20270;-58
2023/01/24 11:36:49;;;;;;;15.50;11.60;;;;;;;5.36;100.00;100801.09;5094744;28;20635;-58
2023/01/24 11:39:48;;;;;;;17.20;12.13;;;;;;;5.31;100.00;100797.56;5097932;28;20640;-59
2023/01/24 11:42:38;;;;;;;34.10;16.67;;;;;;;5.37;100.00;100789.94;5098878;28;20650;-58
2023/01/24 11:45:39;;;;;;;18.07;9.50;;;;;;;5.48;100.00;100793.53;5097254;28;20187;-58
2023/01/24 11:48:24;;;;;;;16.83;8.90;;;;;;;5.58;100.00;100790.19;5098150;28;20249;-58
2023/01/24 11:51:09;;;;;;;15.83;6.13;;;;;;;5.52;100.00;100785.00;5101029;28;20277;-59
2023/01/24 11:54:03;;;;;;;15.93;7.77;;;;;;;5.36;100.00;100783.94;5098871;28;20319;-58
2023/01/24 11:56:59;;;;;;;13.57;8.00;;;;;;;5.20;100.00;100783.69;5098326;28;20230;-58
2023/01/24 11:59:52;;;;;;;13.80;7.63;;;;;;;5.15;100.00;100772.50;5098132;28;20198;-58
2023/01/24 12:02:51;;;;;;;14.43;7.23;;;;;;;5.24;100.00;100781.19;5100474;28;20245;-57
2023/01/24 12:05:55;;;;;;;9.17;7.80;;;;;;;5.36;100.00;100778.78;5101345;28;20652;-58
2023/01/24 12:08:59;;;;;;;13.70;7.87;;;;;;;5.43;100.00;100772.84;5101090;28;20193;-58
2023/01/24 12:11:44;;;;;;;12.93;8.97;;;;;;;5.61;100.00;100785.09;5096852;28;20571;-58
2023/01/24 12:15:17;;;;;;;11.60;8.60;;;;;;;5.70;100.00;100785.19;5098065;28;20187;-58
2023/01/24 12:18:30;;;;;;;10.53;6.60;;;;;;;5.61;100.00;100790.25;5017732;28;20615;-58
2023/01/24 12:21:23;;;;;;;8.97;6.10;;;;;;;5.71;100.00;100781.78;5018853;28;20239;-59
2023/01/24 12:24:24;;;;;;;11.13;7.10;;;;;;;5.74;100.00;100786.97;5102410;28;20206;-58
2023/01/24 12:27:09;;;;;;;9.03;6.03;;;;;;;5.85;100.00;100779.34;5099597;28;20672;-57
2023/01/24 12:29:57;;;;;;;12.33;6.50;;;;;;;5.91;100.00;100794.03;5098600;28;20620;-58
2023/01/24 12:32:48;;;;;;;22.00;11.10;;;;;;;5.87;100.00;100790.50;5098277;28;20191;-59
2023/01/24 12:35:34;;;;;;;21.67;10.87;;;;;;;5.92;100.00;100783.75;5097033;28;20198;-58
2023/01/24 12:38:50;;;;;;;25.20;10.50;;;;;;;5.77;100.00;100796.41;5098657;28;20207;-58
2023/01/24 12:44:35;;;;;;;14.93;9.67;;;;;;;5.48;100.00;100783.22;5096545;28;20215;-59
2023/01/24 12:47:33;;;;;;;12.27;9.07;;;;;;;5.36;100.00;100762.47;5101310;28;20197;-54
2023/01/24 12:53:55;;;;;;;;;;;;;;;;;;;;;
2023/01/24 12:59:47;;;;;;;8.93;6.93;;;;;;;5.57;100.00;100791.06;5100182;28;20259;-59
2023/01/24 13:03:17;;;;;;;9.60;6.97;;;;;;;5.67;100.00;100787.72;5098005;28;20195;-59
2023/01/24 13:06:08;;;;;;;16.67;8.83;;;;;;;5.60;100.00;100787.66;5099306;28;20209;-58
2023/01/24 13:09:04;;;;;;;21.33;11.13;;;;;;;5.58;100.00;100790.19;5097860;28;20630;-59
2023/01/24 13:11:59;;;;;;;17.53;10.50;;;;;;;5.67;100.00;100790.31;5099117;28;20560;-59
2023/01/24 13:14:47;;;;;;;15.23;10.37;;;;;;;5.89;100.00;100795.72;5098508;28;20214;-58
2023/01/24 13:17:57;;;;;;;17.37;8.80;;;;;;;5.85;100.00;100792.25;5096459;28;20670;-58
2023/01/24 13:21:13;;;;;;;17.80;10.20;;;;;;;5.97;100.00;100792.41;5079208;28;20343;-59
2023/01/24 13:24:29;;;;;;;11.60;7.43;;;;;;;5.84;100.00;100791.38;5099421;28;20614;-59
2023/01/24 13:30:44;;;;;;;10.70;8.20;;;;;;;5.94;100.00;100792.34;5104186;28;20194;-58
2023/01/24 13:33:27;;;;;;;24.97;8.70;;;;;;;5.99;100.00;100805.28;5093431;28;20186;-59
2023/01/24 13:36:30;;;;;;;10.07;7.50;;;;;;;5.93;100.00;100805.22;5097521;28;20699;-60
2023/01/24 13:39:39;;;;;;;20.63;10.93;;;;;;;5.84;100.00;100798.25;5098459;28;20290;-59
2023/01/24 13:53:02;;;;;;;;;;;;;;;;;;;;;
2023/01/24 13:56:12;;;;;;;25.43;11.07;;;;;;;6.02;100.00;100805.31;5127550;27;20223;-58
2023/01/24 13:59:18;;;;;;;38.77;24.03;;;;;;;5.93;100.00;100802.66;5128475;27;20220;-60
2023/01/24 14:09:33;;;;;;;19.13;12.40;;;;;;;5.84;100.00;100809.41;5126316;28;20194;-59
2023/01/24 14:12:49;;;;;;;19.07;11.93;;;;;;;5.74;100.00;100797.28;5122230;28;20220;-58
2023/01/24 14:22:50;;;;;;;12.30;8.63;;;;;;;5.74;100.00;100797.28;5127021;28;20221;-60
2023/01/24 14:26:21;;;;;;;14.60;8.63;;;;;;;5.82;100.00;100799.94;5127215;28;20751;-59
2023/01/24 14:29:02;;;;;;;8.23;6.93;;;;;;;5.81;100.00;100803.34;5125860;28;20237;-59
2023/01/24 14:31:55;;;;;;;9.97;7.13;;;;;;;5.84;100.00;100796.53;5106464;28;20215;-59
2023/01/24 14:34:57;;;;;;;11.47;7.77;;;;;;;5.86;100.00;100801.69;5105463;28;20217;-59
2023/01/24 14:37:40;;;;;;;7.93;7.13;;;;;;;5.75;100.00;100793.84;5120515;27;20257;-59
2023/01/24 14:40:33;;;;;;;8.33;6.97;;;;;;;5.55;100.00;100774.72;5132683;27;20195;-58
2023/01/24 14:46:27;;;;;;;13.13;8.80;;;;;;;5.61;100.00;100803.13;5145453;27;20198;-59
2023/01/24 14:49:11;;;;;;;11.03;8.30;;;;;;;5.66;100.00;100800.59;5134278;27;20200;-60
2023/01/24 14:55:25;;;;;;;23.40;13.00;;;;;;;5.47;100.00;100760.88;5141631;27;20244;-58
2023/01/24 14:58:03;;;;;;;13.73;9.37;;;;;;;5.66;100.00;100801.44;5123352;27;20204;-55
2023/01/24 15:00:44;;;;;;;17.13;10.77;;;;;;;5.71;100.00;100806.66;5118732;27;20194;-54
2023/01/24 15:03:32;;;;;;;15.23;10.63;;;;;;;5.75;100.00;100808.44;5115916;27;20226;-56
2023/01/24 15:06:12;;;;;;;14.10;9.30;;;;;;;5.82;100.00;100805.06;5121431;27;20198;-56
2023/01/24 15:09:18;;;;;;;;;;;;;;;;;;;;;
2023/01/24 15:11:50;;;;;;;14.80;9.60;;;;;;;5.65;100.00;100809.16;5087511;27;20561;-55
2023/01/24 15:14:30;;;;;;;15.27;8.87;;;;;;;5.68;100.00;100809.19;5119466;27;20573;-54
2023/01/24 15:17:11;;;;;;;16.00;10.03;;;;;;;5.65;100.00;100810.03;5121399;27;20669;-55
2023/01/24 15:20:10;;;;;;;17.83;10.93;;;;;;;5.65;100.00;100807.44;5119737;27;20190;-58
2023/01/24 15:22:46;;;;;;;18.40;10.30;;;;;;;5.67;100.00;100817.78;5119465;27;20207;-55
2023/01/24 15:25:39;;;;;;;17.70;11.77;;;;;;;5.58;100.00;100815.97;5121818;27;20299;-55
2023/01/24 15:28:28;;;;;;;25.03;16.37;;;;;;;5.50;100.00;100822.75;5117671;27;20252;-56
2023/01/24 15:31:12;;;;;;;18.70;11.10;;;;;;;5.45;100.00;100809.78;5119583;27;20282;-57
2023/01/24 15:33:53;;;;;;;38.23;23.83;;;;;;;5.56;100.00;100817.66;5121959;27;20204;-56
2023/01/24 15:52:32;;;;;;;16.70;12.27;;;;;;;5.75;100.00;100832.50;5109238;28;20598;-56
2023/01/24 15:55:19;;;;;;;16.33;11.83;;;;;;;5.79;100.00;100836.81;5111769;28;20195;-55
2023/01/24 15:58:13;;;;;;;18.63;13.33;;;;;;;5.89;100.00;100836.94;5110271;28;20737;-57
2023/01/24 16:01:28;;;;;;;18.27;12.47;;;;;;;5.87;100.00;100834.31;5111493;28;20202;-58
2023/01/24 17:41:06;;;;;;;25.27;15.55;;;;;;;4.87;100.00;100854.44;4858787;27;7532033;-58
2023/01/24 17:43:44;;;;;;;21.80;15.80;;;;;;;4.93;100.00;100844.25;5107089;28;20607;-58
2023/01/24 17:46:31;;;;;;;31.90;18.17;;;;;;;5.06;100.00;100846.16;5105471;28;20218;-60
2023/01/24 17:49:37;;;;;;;40.33;21.47;;;;;;;5.16;100.00;100844.59;5104985;28;20263;-52
2023/01/24 17:52:17;;;;;;;32.57;17.60;;;;;;;5.37;100.00;100844.88;5106409;28;20219;-52
2023/01/24 17:54:57;;;;;;;28.67;17.10;;;;;;;5.47;100.00;100848.44;5104678;28;20314;-53
2023/01/24 17:57:44;;;;;;;29.07;18.33;;;;;;;5.49;100.00;100844.19;5106568;28;20275;-53
2023/01/24 18:00:20;;;;;;;28.77;18.80;;;;;;;5.43;100.00;100842.38;5106739;28;20716;-53
2023/01/24 18:02:55;;;;;;;33.57;20.47;;;;;;;5.45;100.00;100847.53;5104454;28;20602;-53
2023/01/24 18:05:27;;;;;;;31.77;21.27;;;;;;;5.55;100.00;100849.41;5104632;28;20214;-52
2023/01/24 18:08:07;;;;;;;28.97;18.57;;;;;;;5.41;100.00;100841.50;5104675;28;20210;-53
2023/01/24 18:10:46;;;;;;;28.20;19.67;;;;;;;5.45;100.00;100850.13;5104134;28;20232;-52
2023/01/24 18:13:34;;;;;;;29.03;18.93;;;;;;;5.54;100.00;100850.22;5106017;28;20198;-52
2023/01/24 18:16:16;;;;;;;22.97;16.43;;;;;;;5.59;100.00;100848.59;5106569;28;20201;-52
2023/01/24 18:19:00;;;;;;;30.03;18.23;;;;;;;5.54;100.00;100844.22;5106556;28;20195;-52
2023/01/24 18:21:37;;;;;;;26.67;19.90;;;;;;;5.50;100.00;100845.03;5106070;28;20696;-53
2023/01/24 18:24:24;;;;;;;30.80;19.63;;;;;;;5.57;100.00;100845.13;5106481;28;20600;-53
2023/01/24 18:27:05;;;;;;;31.47;17.73;;;;;;;5.51;100.00;100849.34;5105635;28;20226;-53
2023/01/24 18:29:43;;;;;;;26.63;17.30;;;;;;;5.37;100.00;100851.75;5085831;28;20191;-52
2023/01/24 18:32:37;;;;;;;28.13;19.20;;;;;;;5.45;100.00;100850.13;5104621;28;20293;-53
2023/01/24 18:35:21;;;;;;;31.60;18.83;;;;;;;5.41;100.00;100858.66;5105321;28;20195;-52
2023/01/24 18:38:04;;;;;;;30.02;20.40;;;;;;;5.27;100.00;100861.06;5105294;28;20443;-53